sensor_id;sensor_type;location;lat;lon;timestamp;P1;durP1;ratioP1;P2;durP2;ratioP2
76574;SDS011;65439;50.948;6.988;2023-05-07T00:00:05;6.80;;;5.00;;
76574;SDS011;65439;50.948;6.988;2023-05-07T00:02:34;7.00;;;4.93;;
76574;SDS011;65439;50.948;6.988;2023-05-07T00:05:01;8.82;;;5.00;;
76574;SDS011;65439;50.948;6.988;2023-05-07T00:07:27;7.50;;;5.43;;
76574;SDS011;65439;50.948;6.988;2023-05-07T00:09:52;7.03;;;5.53;;
76574;SDS011;65439;50.948;6.988;2023-05-07T00:12:18;6.07;;;4.93;;
76574;SDS011;65439;50.948;6.988;2023-05-07T00:14:43;6.00;;;5.17;;
76574;SDS011;65439;50.948;6.988;2023-05-07T00:17:08;5.67;;;5.07;;
76574;SDS011;65439;50.948;6.988;2023-05-07T00:19:34;7.97;;;5.25;;
76574;SDS011;65439;50.948;6.988;2023-05-07T00:21:59;8.10;;;4.57;;
76574;SDS011;65439;50.948;6.988;2023-05-07T00:24:25;5.72;;;4.32;;
76574;SDS011;65439;50.948;6.988;2023-05-07T00:26:50;5.43;;;4.70;;
76574;SDS011;65439;50.948;6.988;2023-05-07T00:29:16;6.35;;;4.78;;
76574;SDS011;65439;50.948;6.988;2023-05-07T00:31:41;7.63;;;5.03;;
76574;SDS011;65439;50.948;6.988;2023-05-07T00:34:06;6.85;;;4.85;;
76574;SDS011;65439;50.948;6.988;2023-05-07T00:36:32;5.80;;;4.13;;
76574;SDS011;65439;50.948;6.988;2023-05-07T00:38:58;6.87;;;4.20;;
76574;SDS011;65439;50.948;6.988;2023-05-07T00:41:25;4.45;;;3.50;;
76574;SDS011;65439;50.948;6.988;2023-05-07T00:43:50;5.65;;;3.70;;
76574;SDS011;65439;50.948;6.988;2023-05-07T00:46:16;5.95;;;4.10;;
76574;SDS011;65439;50.948;6.988;2023-05-07T00:48:42;5.07;;;4.50;;
76574;SDS011;65439;50.948;6.988;2023-05-07T00:51:07;7.87;;;3.70;;
76574;SDS011;65439;50.948;6.988;2023-05-07T00:53:32;6.40;;;4.25;;
76574;SDS011;65439;50.948;6.988;2023-05-07T00:55:58;7.10;;;4.00;;
76574;SDS011;65439;50.948;6.988;2023-05-07T00:58:23;5.25;;;3.53;;
76574;SDS011;65439;50.948;6.988;2023-05-07T01:00:48;9.48;;;4.03;;
76574;SDS011;65439;50.948;6.988;2023-05-07T01:03:14;5.18;;;4.05;;
76574;SDS011;65439;50.948;6.988;2023-05-07T01:05:40;5.78;;;3.72;;
76574;SDS011;65439;50.948;6.988;2023-05-07T01:08:07;5.53;;;3.72;;
76574;SDS011;65439;50.948;6.988;2023-05-07T01:10:32;5.30;;;2.77;;
76574;SDS011;65439;50.948;6.988;2023-05-07T01:12:58;4.78;;;3.63;;
76574;SDS011;65439;50.948;6.988;2023-05-07T01:15:23;5.20;;;4.35;;
76574;SDS011;65439;50.948;6.988;2023-05-07T01:17:49;5.43;;;3.55;;
76574;SDS011;65439;50.948;6.988;2023-05-07T01:20:14;4.85;;;2.88;;
76574;SDS011;65439;50.948;6.988;2023-05-07T01:22:40;4.82;;;2.97;;
76574;SDS011;65439;50.948;6.988;2023-05-07T01:25:06;4.70;;;3.60;;
76574;SDS011;65439;50.948;6.988;2023-05-07T01:27:34;3.70;;;2.95;;
76574;SDS011;65439;50.948;6.988;2023-05-07T01:30:01;4.68;;;3.10;;
76574;SDS011;65439;50.948;6.988;2023-05-07T01:32:48;5.45;;;3.40;;
76574;SDS011;65439;50.948;6.988;2023-05-07T01:35:20;4.38;;;2.92;;
76574;SDS011;65439;50.948;6.988;2023-05-07T01:37:47;4.10;;;2.90;;
76574;SDS011;65439;50.948;6.988;2023-05-07T01:40:13;6.07;;;3.78;;
76574;SDS011;65439;50.948;6.988;2023-05-07T01:42:38;5.35;;;3.33;;
76574;SDS011;65439;50.948;6.988;2023-05-07T01:45:04;6.05;;;3.20;;
76574;SDS011;65439;50.948;6.988;2023-05-07T01:47:30;4.22;;;3.10;;
76574;SDS011;65439;50.948;6.988;2023-05-07T01:49:56;4.55;;;2.80;;
76574;SDS011;65439;50.948;6.988;2023-05-07T01:52:22;4.13;;;3.20;;
76574;SDS011;65439;50.948;6.988;2023-05-07T01:54:47;4.88;;;2.72;;
76574;SDS011;65439;50.948;6.988;2023-05-07T01:57:12;4.33;;;2.70;;
76574;SDS011;65439;50.948;6.988;2023-05-07T01:59:38;5.43;;;3.27;;
76574;SDS011;65439;50.948;6.988;2023-05-07T02:02:03;4.60;;;3.47;;
76574;SDS011;65439;50.948;6.988;2023-05-07T02:04:28;4.78;;;3.15;;
76574;SDS011;65439;50.948;6.988;2023-05-07T02:06:54;4.85;;;3.13;;
76574;SDS011;65439;50.948;6.988;2023-05-07T02:09:19;6.93;;;3.90;;
76574;SDS011;65439;50.948;6.988;2023-05-07T02:11:44;4.60;;;3.13;;
76574;SDS011;65439;50.948;6.988;2023-05-07T02:14:10;4.32;;;3.40;;
76574;SDS011;65439;50.948;6.988;2023-05-07T02:16:35;4.90;;;3.25;;
76574;SDS011;65439;50.948;6.988;2023-05-07T02:19:01;6.38;;;3.38;;
76574;SDS011;65439;50.948;6.988;2023-05-07T02:21:26;6.30;;;3.67;;
76574;SDS011;65439;50.948;6.988;2023-05-07T02:23:52;4.78;;;3.60;;
76574;SDS011;65439;50.948;6.988;2023-05-07T02:26:18;5.00;;;3.80;;
76574;SDS011;65439;50.948;6.988;2023-05-07T02:28:43;6.33;;;3.70;;
76574;SDS011;65439;50.948;6.988;2023-05-07T02:31:08;6.63;;;4.27;;
76574;SDS011;65439;50.948;6.988;2023-05-07T02:33:34;5.47;;;3.63;;
76574;SDS011;65439;50.948;6.988;2023-05-07T02:36:07;4.32;;;3.80;;
76574;SDS011;65439;50.948;6.988;2023-05-07T02:38:33;5.88;;;4.10;;
76574;SDS011;65439;50.948;6.988;2023-05-07T02:40:59;5.18;;;4.05;;
76574;SDS011;65439;50.948;6.988;2023-05-07T02:43:24;5.15;;;3.45;;
76574;SDS011;65439;50.948;6.988;2023-05-07T02:45:59;5.53;;;3.33;;
76574;SDS011;65439;50.948;6.988;2023-05-07T02:48:25;4.43;;;3.40;;
76574;SDS011;65439;50.948;6.988;2023-05-07T02:50:50;3.77;;;3.37;;
76574;SDS011;65439;50.948;6.988;2023-05-07T02:53:16;4.77;;;3.23;;
76574;SDS011;65439;50.948;6.988;2023-05-07T02:55:41;4.53;;;3.20;;
76574;SDS011;65439;50.948;6.988;2023-05-07T02:58:06;4.07;;;3.17;;
76574;SDS011;65439;50.948;6.988;2023-05-07T03:00:32;4.40;;;3.30;;
76574;SDS011;65439;50.948;6.988;2023-05-07T03:02:57;5.53;;;3.28;;
76574;SDS011;65439;50.948;6.988;2023-05-07T03:05:22;5.00;;;3.47;;
76574;SDS011;65439;50.948;6.988;2023-05-07T03:07:48;5.63;;;4.00;;
76574;SDS011;65439;50.948;6.988;2023-05-07T03:10:13;6.23;;;3.03;;
76574;SDS011;65439;50.948;6.988;2023-05-07T03:12:38;7.20;;;3.67;;
76574;SDS011;65439;50.948;6.988;2023-05-07T03:15:04;4.85;;;3.47;;
76574;SDS011;65439;50.948;6.988;2023-05-07T03:17:30;4.10;;;3.28;;
76574;SDS011;65439;50.948;6.988;2023-05-07T03:19:55;3.80;;;2.90;;
76574;SDS011;65439;50.948;6.988;2023-05-07T03:22:20;5.17;;;3.40;;
76574;SDS011;65439;50.948;6.988;2023-05-07T03:24:46;4.63;;;2.93;;
76574;SDS011;65439;50.948;6.988;2023-05-07T03:27:11;3.70;;;3.03;;
76574;SDS011;65439;50.948;6.988;2023-05-07T03:29:36;3.20;;;2.63;;
76574;SDS011;65439;50.948;6.988;2023-05-07T03:32:01;5.70;;;3.20;;
76574;SDS011;65439;50.948;6.988;2023-05-07T03:34:27;5.53;;;3.37;;
76574;SDS011;65439;50.948;6.988;2023-05-07T03:36:52;5.03;;;3.20;;
76574;SDS011;65439;50.948;6.988;2023-05-07T03:39:17;5.20;;;3.57;;
76574;SDS011;65439;50.948;6.988;2023-05-07T03:41:43;4.30;;;3.40;;
76574;SDS011;65439;50.948;6.988;2023-05-07T03:44:08;5.57;;;3.50;;
76574;SDS011;65439;50.948;6.988;2023-05-07T03:46:33;6.83;;;3.40;;
76574;SDS011;65439;50.948;6.988;2023-05-07T03:48:59;5.72;;;3.80;;
76574;SDS011;65439;50.948;6.988;2023-05-07T03:51:24;6.38;;;3.70;;
76574;SDS011;65439;50.948;6.988;2023-05-07T03:53:50;4.72;;;3.03;;
76574;SDS011;65439;50.948;6.988;2023-05-07T03:56:17;4.57;;;3.47;;
76574;SDS011;65439;50.948;6.988;2023-05-07T03:58:43;4.75;;;3.60;;
76574;SDS011;65439;50.948;6.988;2023-05-07T04:01:09;8.68;;;3.35;;
76574;SDS011;65439;50.948;6.988;2023-05-07T04:03:34;4.65;;;3.28;;
76574;SDS011;65439;50.948;6.988;2023-05-07T04:05:59;5.53;;;3.75;;
76574;SDS011;65439;50.948;6.988;2023-05-07T04:08:25;6.05;;;3.40;;
76574;SDS011;65439;50.948;6.988;2023-05-07T04:10:59;4.28;;;3.20;;
76574;SDS011;65439;50.948;6.988;2023-05-07T04:13:25;4.40;;;3.55;;
76574;SDS011;65439;50.948;6.988;2023-05-07T04:15:51;5.75;;;3.20;;
76574;SDS011;65439;50.948;6.988;2023-05-07T04:18:17;6.38;;;3.42;;
76574;SDS011;65439;50.948;6.988;2023-05-07T04:20:42;5.00;;;3.20;;
76574;SDS011;65439;50.948;6.988;2023-05-07T04:23:07;5.47;;;3.33;;
76574;SDS011;65439;50.948;6.988;2023-05-07T04:25:33;4.47;;;3.13;;
76574;SDS011;65439;50.948;6.988;2023-05-07T04:27:59;4.97;;;2.85;;
76574;SDS011;65439;50.948;6.988;2023-05-07T04:30:24;3.80;;;3.13;;
76574;SDS011;65439;50.948;6.988;2023-05-07T04:32:49;5.10;;;3.15;;
76574;SDS011;65439;50.948;6.988;2023-05-07T04:35:15;5.35;;;3.33;;
76574;SDS011;65439;50.948;6.988;2023-05-07T04:37:40;8.02;;;3.50;;
76574;SDS011;65439;50.948;6.988;2023-05-07T04:40:06;4.47;;;3.37;;
76574;SDS011;65439;50.948;6.988;2023-05-07T04:42:32;4.85;;;3.50;;
76574;SDS011;65439;50.948;6.988;2023-05-07T04:44:57;6.40;;;3.67;;
76574;SDS011;65439;50.948;6.988;2023-05-07T04:47:22;4.93;;;3.70;;
76574;SDS011;65439;50.948;6.988;2023-05-07T04:49:48;7.53;;;3.90;;
76574;SDS011;65439;50.948;6.988;2023-05-07T04:52:13;5.00;;;3.80;;
76574;SDS011;65439;50.948;6.988;2023-05-07T04:54:38;7.13;;;3.80;;
76574;SDS011;65439;50.948;6.988;2023-05-07T04:57:04;4.95;;;3.95;;
76574;SDS011;65439;50.948;6.988;2023-05-07T04:59:29;6.85;;;2.90;;
76574;SDS011;65439;50.948;6.988;2023-05-07T05:01:55;4.95;;;3.35;;
76574;SDS011;65439;50.948;6.988;2023-05-07T05:04:20;3.85;;;2.58;;
76574;SDS011;65439;50.948;6.988;2023-05-07T05:06:45;5.17;;;3.90;;
76574;SDS011;65439;50.948;6.988;2023-05-07T05:09:11;6.93;;;2.60;;
76574;SDS011;65439;50.948;6.988;2023-05-07T05:11:36;5.30;;;3.40;;
76574;SDS011;65439;50.948;6.988;2023-05-07T05:14:01;5.53;;;3.20;;
76574;SDS011;65439;50.948;6.988;2023-05-07T05:16:27;5.85;;;3.20;;
76574;SDS011;65439;50.948;6.988;2023-05-07T05:18:52;3.25;;;2.72;;
76574;SDS011;65439;50.948;6.988;2023-05-07T05:21:19;5.35;;;3.10;;
76574;SDS011;65439;50.948;6.988;2023-05-07T05:23:44;5.63;;;3.22;;
76574;SDS011;65439;50.948;6.988;2023-05-07T05:26:10;4.45;;;3.00;;
76574;SDS011;65439;50.948;6.988;2023-05-07T05:28:35;5.83;;;3.20;;
76574;SDS011;65439;50.948;6.988;2023-05-07T05:31:01;6.45;;;3.60;;
76574;SDS011;65439;50.948;6.988;2023-05-07T05:33:26;7.85;;;3.05;;
76574;SDS011;65439;50.948;6.988;2023-05-07T05:35:53;3.47;;;2.80;;
76574;SDS011;65439;50.948;6.988;2023-05-07T05:38:18;6.45;;;2.95;;
76574;SDS011;65439;50.948;6.988;2023-05-07T05:40:44;4.80;;;3.40;;
76574;SDS011;65439;50.948;6.988;2023-05-07T05:43:09;4.70;;;3.10;;
76574;SDS011;65439;50.948;6.988;2023-05-07T05:45:34;4.00;;;2.53;;
76574;SDS011;65439;50.948;6.988;2023-05-07T05:48:00;4.20;;;2.65;;
76574;SDS011;65439;50.948;6.988;2023-05-07T05:50:25;4.47;;;3.00;;
76574;SDS011;65439;50.948;6.988;2023-05-07T05:52:50;6.35;;;3.10;;
76574;SDS011;65439;50.948;6.988;2023-05-07T05:55:16;4.67;;;3.17;;
76574;SDS011;65439;50.948;6.988;2023-05-07T05:57:41;4.05;;;2.95;;
76574;SDS011;65439;50.948;6.988;2023-05-07T06:00:07;4.18;;;3.08;;
76574;SDS011;65439;50.948;6.988;2023-05-07T06:02:33;3.35;;;2.55;;
76574;SDS011;65439;50.948;6.988;2023-05-07T06:04:58;4.40;;;2.58;;
76574;SDS011;65439;50.948;6.988;2023-05-07T06:07:23;4.07;;;3.00;;
76574;SDS011;65439;50.948;6.988;2023-05-07T06:09:49;4.40;;;2.77;;
76574;SDS011;65439;50.948;6.988;2023-05-07T06:12:14;5.00;;;2.67;;
76574;SDS011;65439;50.948;6.988;2023-05-07T06:14:39;3.55;;;2.63;;
76574;SDS011;65439;50.948;6.988;2023-05-07T06:17:05;2.95;;;2.22;;
76574;SDS011;65439;50.948;6.988;2023-05-07T06:19:31;3.47;;;2.72;;
76574;SDS011;65439;50.948;6.988;2023-05-07T06:21:56;3.60;;;2.53;;
76574;SDS011;65439;50.948;6.988;2023-05-07T06:24:22;4.43;;;2.67;;
76574;SDS011;65439;50.948;6.988;2023-05-07T06:26:47;3.47;;;3.08;;
76574;SDS011;65439;50.948;6.988;2023-05-07T06:29:13;3.42;;;2.50;;
76574;SDS011;65439;50.948;6.988;2023-05-07T06:31:38;4.90;;;2.85;;
76574;SDS011;65439;50.948;6.988;2023-05-07T06:34:04;4.37;;;2.40;;
76574;SDS011;65439;50.948;6.988;2023-05-07T06:36:29;3.65;;;2.50;;
76574;SDS011;65439;50.948;6.988;2023-05-07T06:38:55;3.63;;;2.27;;
76574;SDS011;65439;50.948;6.988;2023-05-07T06:41:20;3.47;;;2.67;;
76574;SDS011;65439;50.948;6.988;2023-05-07T06:43:45;3.63;;;2.20;;
76574;SDS011;65439;50.948;6.988;2023-05-07T06:46:11;3.35;;;2.20;;
76574;SDS011;65439;50.948;6.988;2023-05-07T06:48:36;2.60;;;2.13;;
76574;SDS011;65439;50.948;6.988;2023-05-07T06:51:01;4.10;;;2.83;;
76574;SDS011;65439;50.948;6.988;2023-05-07T06:53:27;5.68;;;2.53;;
76574;SDS011;65439;50.948;6.988;2023-05-07T06:55:54;3.80;;;2.63;;
76574;SDS011;65439;50.948;6.988;2023-05-07T06:58:19;4.13;;;2.50;;
76574;SDS011;65439;50.948;6.988;2023-05-07T07:00:44;4.55;;;2.60;;
76574;SDS011;65439;50.948;6.988;2023-05-07T07:03:10;3.40;;;2.50;;
76574;SDS011;65439;50.948;6.988;2023-05-07T07:05:36;14.30;;;2.63;;
76574;SDS011;65439;50.948;6.988;2023-05-07T07:08:01;5.33;;;2.57;;
76574;SDS011;65439;50.948;6.988;2023-05-07T07:10:26;3.00;;;2.43;;
76574;SDS011;65439;50.948;6.988;2023-05-07T07:12:51;11.60;;;9.03;;
76574;SDS011;65439;50.948;6.988;2023-05-07T07:15:17;7.50;;;5.00;;
76574;SDS011;65439;50.948;6.988;2023-05-07T07:17:43;4.30;;;2.80;;
76574;SDS011;65439;50.948;6.988;2023-05-07T07:20:08;3.77;;;2.50;;
76574;SDS011;65439;50.948;6.988;2023-05-07T07:22:34;4.70;;;2.63;;
76574;SDS011;65439;50.948;6.988;2023-05-07T07:24:59;7.20;;;2.97;;
76574;SDS011;65439;50.948;6.988;2023-05-07T07:27:25;4.10;;;2.63;;
76574;SDS011;65439;50.948;6.988;2023-05-07T07:29:50;7.03;;;2.85;;
76574;SDS011;65439;50.948;6.988;2023-05-07T07:32:16;3.88;;;2.75;;
76574;SDS011;65439;50.948;6.988;2023-05-07T07:34:41;3.67;;;2.83;;
76574;SDS011;65439;50.948;6.988;2023-05-07T07:37:06;3.83;;;2.47;;
76574;SDS011;65439;50.948;6.988;2023-05-07T07:39:32;2.53;;;2.07;;
76574;SDS011;65439;50.948;6.988;2023-05-07T07:41:58;4.35;;;2.72;;
76574;SDS011;65439;50.948;6.988;2023-05-07T07:44:23;2.77;;;2.27;;
76574;SDS011;65439;50.948;6.988;2023-05-07T07:46:48;8.13;;;3.03;;
76574;SDS011;65439;50.948;6.988;2023-05-07T07:49:14;4.40;;;2.05;;
76574;SDS011;65439;50.948;6.988;2023-05-07T07:51:39;3.72;;;2.80;;
76574;SDS011;65439;50.948;6.988;2023-05-07T07:54:05;2.80;;;2.20;;
76574;SDS011;65439;50.948;6.988;2023-05-07T07:56:31;3.77;;;2.53;;
76574;SDS011;65439;50.948;6.988;2023-05-07T07:58:58;3.42;;;2.13;;
76574;SDS011;65439;50.948;6.988;2023-05-07T08:01:23;3.92;;;2.40;;
76574;SDS011;65439;50.948;6.988;2023-05-07T08:03:49;3.78;;;2.60;;
76574;SDS011;65439;50.948;6.988;2023-05-07T08:06:15;5.78;;;2.85;;
76574;SDS011;65439;50.948;6.988;2023-05-07T08:08:40;4.30;;;2.67;;
76574;SDS011;65439;50.948;6.988;2023-05-07T08:11:06;3.78;;;2.33;;
76574;SDS011;65439;50.948;6.988;2023-05-07T08:13:31;3.67;;;2.35;;
76574;SDS011;65439;50.948;6.988;2023-05-07T08:15:56;4.15;;;2.25;;
76574;SDS011;65439;50.948;6.988;2023-05-07T08:18:22;3.60;;;2.40;;
76574;SDS011;65439;50.948;6.988;2023-05-07T08:20:49;3.13;;;2.30;;
76574;SDS011;65439;50.948;6.988;2023-05-07T08:23:15;3.05;;;1.98;;
76574;SDS011;65439;50.948;6.988;2023-05-07T08:25:40;4.47;;;2.72;;
76574;SDS011;65439;50.948;6.988;2023-05-07T08:28:07;5.72;;;2.83;;
76574;SDS011;65439;50.948;6.988;2023-05-07T08:30:32;3.63;;;2.93;;
76574;SDS011;65439;50.948;6.988;2023-05-07T08:32:57;4.83;;;2.03;;
76574;SDS011;65439;50.948;6.988;2023-05-07T08:35:23;5.13;;;3.03;;
76574;SDS011;65439;50.948;6.988;2023-05-07T08:37:48;3.93;;;2.03;;
76574;SDS011;65439;50.948;6.988;2023-05-07T08:40:13;5.07;;;3.57;;
76574;SDS011;65439;50.948;6.988;2023-05-07T08:42:39;3.85;;;2.70;;
76574;SDS011;65439;50.948;6.988;2023-05-07T08:45:06;4.13;;;2.40;;
76574;SDS011;65439;50.948;6.988;2023-05-07T08:47:35;4.78;;;2.50;;
76574;SDS011;65439;50.948;6.988;2023-05-07T08:50:06;3.47;;;2.20;;
76574;SDS011;65439;50.948;6.988;2023-05-07T08:52:32;4.20;;;2.47;;
76574;SDS011;65439;50.948;6.988;2023-05-07T08:54:57;2.87;;;2.40;;
76574;SDS011;65439;50.948;6.988;2023-05-07T08:57:24;4.55;;;2.30;;
76574;SDS011;65439;50.948;6.988;2023-05-07T08:59:49;5.40;;;2.65;;
76574;SDS011;65439;50.948;6.988;2023-05-07T09:02:15;8.90;;;4.82;;
76574;SDS011;65439;50.948;6.988;2023-05-07T09:04:41;3.17;;;2.45;;
76574;SDS011;65439;50.948;6.988;2023-05-07T09:07:06;4.25;;;2.40;;
76574;SDS011;65439;50.948;6.988;2023-05-07T09:09:32;4.73;;;2.30;;
76574;SDS011;65439;50.948;6.988;2023-05-07T09:11:58;4.40;;;2.83;;
76574;SDS011;65439;50.948;6.988;2023-05-07T09:16:51;3.73;;;2.77;;
76574;SDS011;65439;50.948;6.988;2023-05-07T09:19:21;2.88;;;2.40;;
76574;SDS011;65439;50.948;6.988;2023-05-07T09:21:57;4.35;;;2.63;;
76574;SDS011;65439;50.948;6.988;2023-05-07T09:24:26;3.20;;;2.42;;
76574;SDS011;65439;50.948;6.988;2023-05-07T09:26:53;4.25;;;2.13;;
76574;SDS011;65439;50.948;6.988;2023-05-07T09:29:20;3.60;;;2.88;;
76574;SDS011;65439;50.948;6.988;2023-05-07T09:31:45;4.63;;;2.80;;
76574;SDS011;65439;50.948;6.988;2023-05-07T09:34:10;2.57;;;2.17;;
76574;SDS011;65439;50.948;6.988;2023-05-07T09:36:36;4.00;;;2.53;;
76574;SDS011;65439;50.948;6.988;2023-05-07T09:39:01;3.33;;;2.90;;
76574;SDS011;65439;50.948;6.988;2023-05-07T09:41:26;5.30;;;2.92;;
76574;SDS011;65439;50.948;6.988;2023-05-07T09:43:54;3.38;;;2.30;;
76574;SDS011;65439;50.948;6.988;2023-05-07T09:46:19;2.80;;;2.00;;
76574;SDS011;65439;50.948;6.988;2023-05-07T09:48:50;3.85;;;2.67;;
76574;SDS011;65439;50.948;6.988;2023-05-07T09:51:24;4.13;;;2.40;;
76574;SDS011;65439;50.948;6.988;2023-05-07T09:53:53;3.33;;;2.67;;
76574;SDS011;65439;50.948;6.988;2023-05-07T09:56:19;4.43;;;2.45;;
76574;SDS011;65439;50.948;6.988;2023-05-07T09:58:45;2.80;;;2.30;;
76574;SDS011;65439;50.948;6.988;2023-05-07T10:01:10;4.28;;;2.40;;
76574;SDS011;65439;50.948;6.988;2023-05-07T10:03:37;3.83;;;2.75;;
76574;SDS011;65439;50.948;6.988;2023-05-07T10:06:05;4.80;;;2.45;;
76574;SDS011;65439;50.948;6.988;2023-05-07T10:08:30;4.03;;;3.05;;
76574;SDS011;65439;50.948;6.988;2023-05-07T10:10:56;3.23;;;2.33;;
76574;SDS011;65439;50.948;6.988;2023-05-07T10:13:21;3.30;;;2.20;;
76574;SDS011;65439;50.948;6.988;2023-05-07T10:15:47;3.83;;;2.40;;
76574;SDS011;65439;50.948;6.988;2023-05-07T10:18:12;3.80;;;2.55;;
76574;SDS011;65439;50.948;6.988;2023-05-07T10:20:38;3.53;;;2.00;;
76574;SDS011;65439;50.948;6.988;2023-05-07T10:23:04;3.13;;;2.00;;
76574;SDS011;65439;50.948;6.988;2023-05-07T10:25:31;2.58;;;1.90;;
76574;SDS011;65439;50.948;6.988;2023-05-07T10:27:59;3.22;;;2.13;;
76574;SDS011;65439;50.948;6.988;2023-05-07T10:30:33;3.67;;;2.08;;
76574;SDS011;65439;50.948;6.988;2023-05-07T10:33:03;3.88;;;2.10;;
76574;SDS011;65439;50.948;6.988;2023-05-07T10:35:31;3.05;;;2.22;;
76574;SDS011;65439;50.948;6.988;2023-05-07T10:38:03;4.45;;;2.42;;
76574;SDS011;65439;50.948;6.988;2023-05-07T10:40:30;3.95;;;1.75;;
76574;SDS011;65439;50.948;6.988;2023-05-07T10:42:56;3.95;;;2.20;;
76574;SDS011;65439;50.948;6.988;2023-05-07T10:45:23;3.70;;;2.65;;
76574;SDS011;65439;50.948;6.988;2023-05-07T10:48:34;3.00;;;2.20;;
76574;SDS011;65439;50.948;6.988;2023-05-07T10:50:34;7.18;;;4.30;;
76574;SDS011;65439;50.948;6.988;2023-05-07T10:58:27;3.88;;;1.88;;
76574;SDS011;65439;50.948;6.988;2023-05-07T11:00:56;3.30;;;2.20;;
76574;SDS011;65439;50.948;6.988;2023-05-07T11:03:23;3.13;;;1.63;;
76574;SDS011;65439;50.948;6.988;2023-05-07T11:06:08;2.97;;;1.80;;
76574;SDS011;65439;50.948;6.988;2023-05-07T11:08:52;2.70;;;1.95;;
76574;SDS011;65439;50.948;6.988;2023-05-07T11:11:17;4.15;;;2.15;;
76574;SDS011;65439;50.948;6.988;2023-05-07T11:13:45;8.75;;;1.88;;
76574;SDS011;65439;50.948;6.988;2023-05-07T11:18:47;4.22;;;1.75;;
76574;SDS011;65439;50.948;6.988;2023-05-07T11:21:16;3.30;;;1.73;;
76574;SDS011;65439;50.948;6.988;2023-05-07T11:23:57;5.13;;;2.85;;
76574;SDS011;65439;50.948;6.988;2023-05-07T11:26:23;2.40;;;1.60;;
76574;SDS011;65439;50.948;6.988;2023-05-07T11:28:50;2.78;;;1.80;;
76574;SDS011;65439;50.948;6.988;2023-05-07T11:31:17;4.38;;;2.15;;
76574;SDS011;65439;50.948;6.988;2023-05-07T11:33:45;3.40;;;1.88;;
76574;SDS011;65439;50.948;6.988;2023-05-07T11:36:11;3.38;;;1.80;;
76574;SDS011;65439;50.948;6.988;2023-05-07T11:38:37;7.43;;;3.08;;
76574;SDS011;65439;50.948;6.988;2023-05-07T11:41:03;2.47;;;1.83;;
76574;SDS011;65439;50.948;6.988;2023-05-07T11:43:30;3.50;;;2.20;;
76574;SDS011;65439;50.948;6.988;2023-05-07T11:45:58;3.13;;;2.30;;
76574;SDS011;65439;50.948;6.988;2023-05-07T11:48:30;4.50;;;2.30;;
76574;SDS011;65439;50.948;6.988;2023-05-07T11:53:27;3.38;;;2.25;;
76574;SDS011;65439;50.948;6.988;2023-05-07T11:55:53;3.92;;;2.08;;
76574;SDS011;65439;50.948;6.988;2023-05-07T11:58:20;3.20;;;2.03;;
76574;SDS011;65439;50.948;6.988;2023-05-07T12:00:50;4.00;;;2.33;;
76574;SDS011;65439;50.948;6.988;2023-05-07T12:03:16;5.85;;;3.05;;
76574;SDS011;65439;50.948;6.988;2023-05-07T12:05:42;2.95;;;2.00;;
76574;SDS011;65439;50.948;6.988;2023-05-07T12:08:08;3.40;;;2.08;;
76574;SDS011;65439;50.948;6.988;2023-05-07T12:10:34;2.90;;;2.30;;
76574;SDS011;65439;50.948;6.988;2023-05-07T12:12:59;3.90;;;2.10;;
76574;SDS011;65439;50.948;6.988;2023-05-07T12:15:24;3.53;;;2.30;;
76574;SDS011;65439;50.948;6.988;2023-05-07T12:17:50;4.47;;;2.20;;
76574;SDS011;65439;50.948;6.988;2023-05-07T12:20:17;3.85;;;2.33;;
76574;SDS011;65439;50.948;6.988;2023-05-07T12:25:08;2.80;;;1.93;;
76574;SDS011;65439;50.948;6.988;2023-05-07T12:30:01;2.53;;;1.95;;
76574;SDS011;65439;50.948;6.988;2023-05-07T12:32:27;2.92;;;1.63;;
76574;SDS011;65439;50.948;6.988;2023-05-07T12:34:53;3.78;;;2.50;;
76574;SDS011;65439;50.948;6.988;2023-05-07T12:37:22;4.38;;;2.92;;
76574;SDS011;65439;50.948;6.988;2023-05-07T12:39:48;3.35;;;2.45;;
76574;SDS011;65439;50.948;6.988;2023-05-07T12:42:15;4.45;;;2.22;;
76574;SDS011;65439;50.948;6.988;2023-05-07T12:44:41;2.88;;;1.88;;
76574;SDS011;65439;50.948;6.988;2023-05-07T12:47:10;2.97;;;2.10;;
76574;SDS011;65439;50.948;6.988;2023-05-07T12:49:35;2.90;;;1.60;;
76574;SDS011;65439;50.948;6.988;2023-05-07T12:52:03;8.98;;;6.60;;
76574;SDS011;65439;50.948;6.988;2023-05-07T12:54:33;3.33;;;2.20;;
76574;SDS011;65439;50.948;6.988;2023-05-07T12:57:02;4.07;;;3.17;;
76574;SDS011;65439;50.948;6.988;2023-05-07T12:59:35;4.28;;;2.33;;
76574;SDS011;65439;50.948;6.988;2023-05-07T13:02:02;3.08;;;2.10;;
76574;SDS011;65439;50.948;6.988;2023-05-07T13:04:27;5.35;;;2.10;;
76574;SDS011;65439;50.948;6.988;2023-05-07T13:06:52;4.00;;;2.20;;
76574;SDS011;65439;50.948;6.988;2023-05-07T13:09:21;2.40;;;1.85;;
76574;SDS011;65439;50.948;6.988;2023-05-07T13:11:46;4.70;;;2.20;;
76574;SDS011;65439;50.948;6.988;2023-05-07T13:14:11;3.90;;;2.43;;
76574;SDS011;65439;50.948;6.988;2023-05-07T13:16:37;4.38;;;2.03;;
76574;SDS011;65439;50.948;6.988;2023-05-07T13:19:02;3.67;;;2.30;;
76574;SDS011;65439;50.948;6.988;2023-05-07T13:21:31;3.13;;;2.35;;
76574;SDS011;65439;50.948;6.988;2023-05-07T13:23:59;3.17;;;2.00;;
76574;SDS011;65439;50.948;6.988;2023-05-07T13:26:25;3.80;;;2.20;;
76574;SDS011;65439;50.948;6.988;2023-05-07T13:28:50;3.15;;;2.10;;
76574;SDS011;65439;50.948;6.988;2023-05-07T13:31:16;2.88;;;2.30;;
76574;SDS011;65439;50.948;6.988;2023-05-07T13:36:07;2.80;;;2.20;;
76574;SDS011;65439;50.948;6.988;2023-05-07T13:38:32;2.75;;;2.30;;
76574;SDS011;65439;50.948;6.988;2023-05-07T13:40:58;3.37;;;2.20;;
76574;SDS011;65439;50.948;6.988;2023-05-07T13:43:24;3.77;;;2.07;;
76574;SDS011;65439;50.948;6.988;2023-05-07T13:45:49;3.13;;;2.15;;
76574;SDS011;65439;50.948;6.988;2023-05-07T13:48:15;4.50;;;2.13;;
76574;SDS011;65439;50.948;6.988;2023-05-07T13:50:40;2.75;;;2.13;;
76574;SDS011;65439;50.948;6.988;2023-05-07T13:53:05;2.70;;;2.03;;
76574;SDS011;65439;50.948;6.988;2023-05-07T13:55:31;2.90;;;2.50;;
76574;SDS011;65439;50.948;6.988;2023-05-07T13:57:58;3.70;;;2.10;;
76574;SDS011;65439;50.948;6.988;2023-05-07T14:00:24;4.38;;;2.10;;
76574;SDS011;65439;50.948;6.988;2023-05-07T14:02:51;4.72;;;3.17;;
76574;SDS011;65439;50.948;6.988;2023-05-07T14:05:16;4.47;;;2.30;;
76574;SDS011;65439;50.948;6.988;2023-05-07T14:07:41;3.77;;;2.20;;
76574;SDS011;65439;50.948;6.988;2023-05-07T14:10:07;3.45;;;1.90;;
76574;SDS011;65439;50.948;6.988;2023-05-07T14:12:32;2.90;;;2.30;;
76574;SDS011;65439;50.948;6.988;2023-05-07T14:14:58;2.95;;;2.00;;
76574;SDS011;65439;50.948;6.988;2023-05-07T14:17:23;4.75;;;2.15;;
76574;SDS011;65439;50.948;6.988;2023-05-07T14:19:51;3.85;;;2.00;;
76574;SDS011;65439;50.948;6.988;2023-05-07T14:22:18;4.50;;;2.35;;
76574;SDS011;65439;50.948;6.988;2023-05-07T14:24:45;4.38;;;2.17;;
76574;SDS011;65439;50.948;6.988;2023-05-07T14:27:10;3.23;;;2.03;;
76574;SDS011;65439;50.948;6.988;2023-05-07T14:29:35;3.55;;;2.55;;
76574;SDS011;65439;50.948;6.988;2023-05-07T14:32:01;2.75;;;2.30;;
76574;SDS011;65439;50.948;6.988;2023-05-07T14:34:28;2.55;;;1.90;;
76574;SDS011;65439;50.948;6.988;2023-05-07T14:36:53;3.67;;;2.33;;
76574;SDS011;65439;50.948;6.988;2023-05-07T14:39:18;2.90;;;1.93;;
76574;SDS011;65439;50.948;6.988;2023-05-07T14:41:44;3.63;;;2.00;;
76574;SDS011;65439;50.948;6.988;2023-05-07T14:44:09;5.13;;;2.42;;
76574;SDS011;65439;50.948;6.988;2023-05-07T14:46:34;3.53;;;2.40;;
76574;SDS011;65439;50.948;6.988;2023-05-07T14:49:01;9.03;;;3.03;;
76574;SDS011;65439;50.948;6.988;2023-05-07T14:51:27;4.18;;;2.58;;
76574;SDS011;65439;50.948;6.988;2023-05-07T14:56:18;4.63;;;3.10;;
76574;SDS011;65439;50.948;6.988;2023-05-07T14:58:43;4.33;;;3.23;;
76574;SDS011;65439;50.948;6.988;2023-05-07T15:01:11;7.72;;;2.95;;
76574;SDS011;65439;50.948;6.988;2023-05-07T15:03:36;4.50;;;2.70;;